Time,TemperatureF,DewpointF,PressureIn,WindDirection,WindDirectionDegrees,WindSpeedMPH,WindSpeedGustMPH,Humidity,HourlyPrecipIn,Conditions,Clouds,dailyrainin,SoftwareType,DateUTC
2013-07-12 00:07:00,60.1,59.5,29.94,ESE,112,0.0,-999.0,98,-99.99,,,0.00,Acu-Link.com,2013-07-12 04:07:00,
2013-07-12 00:23:00,59.7,59.1,29.94,NNE,22,0.0,-999.0,98,-99.99,,,0.00,Acu-Link.com,2013-07-12 04:23:00,
2013-07-12 00:38:00,59.2,58.6,29.94,NW,315,0.0,-999.0,98,-99.99,,,0.00,Acu-Link.com,2013-07-12 04:38:00,
2013-07-12 00:53:00,59.2,58.6,29.94,NW,315,0.0,-999.0,98,-99.99,,,0.00,Acu-Link.com,2013-07-12 04:53:00,
2013-07-12 01:08:00,58.6,58.0,29.94,NW,315,0.0,-999.0,98,-99.99,,,0.00,Acu-Link.com,2013-07-12 05:08:00,
2013-07-12 01:23:00,58.3,57.7,29.94,WNW,292,0.0,-999.0,98,-99.99,,,0.00,Acu-Link.com,2013-07-12 05:23:00,
2013-07-12 01:39:00,58.1,57.5,29.95,WNW,292,0.0,-999.0,98,-99.99,,,0.00,Acu-Link.com,2013-07-12 05:39:00,
2013-07-12 01:54:00,57.9,57.3,29.95,NE,45,0.0,-999.0,98,-99.99,,,0.00,Acu-Link.com,2013-07-12 05:54:00,
2013-07-12 02:09:00,57.7,57.1,29.96,SSW,202,0.0,-999.0,98,-99.99,,,0.00,Acu-Link.com,2013-07-12 06:09:00,
2013-07-12 02:24:00,57.6,57.0,29.96,WNW,292,0.0,-999.0,98,-99.99,,,0.00,Acu-Link.com,2013-07-12 06:24:00,
2013-07-12 02:39:00,57.2,56.6,29.97,WNW,292,0.0,-999.0,98,-99.99,,,0.00,Acu-Link.com,2013-07-12 06:39:00,
2013-07-12 02:55:00,57.2,56.6,29.97,West,270,0.0,-999.0,98,-99.99,,,0.00,Acu-Link.com,2013-07-12 06:55:00,
2013-07-12 03:10:00,57.0,56.4,29.98,WNW,292,0.0,-999.0,98,-99.99,,,0.00,Acu-Link.com,2013-07-12 07:10:00,
2013-07-12 03:25:00,56.7,56.1,29.98,WNW,292,0.0,-999.0,98,-99.99,,,0.00,Acu-Link.com,2013-07-12 07:25:00,
2013-07-12 03:40:00,56.5,55.9,29.99,WNW,292,0.0,-999.0,98,-99.99,,,0.00,Acu-Link.com,2013-07-12 07:40:00,
2013-07-12 03:55:00,56.5,55.9,29.99,North,0,0.0,-999.0,98,-99.99,,,0.00,Acu-Link.com,2013-07-12 07:55:00,
2013-07-12 04:11:00,56.5,55.9,29.99,WNW,292,0.0,-999.0,98,-99.99,,,0.00,Acu-Link.com,2013-07-12 08:11:00,
2013-07-12 04:26:00,56.3,55.7,30.00,NNE,22,0.0,-999.0,98,-99.99,,,0.00,Acu-Link.com,2013-07-12 08:26:00,
2013-07-12 04:41:00,56.3,55.7,30.00,NW,315,0.0,-999.0,98,-99.99,,,0.00,Acu-Link.com,2013-07-12 08:41:00,
2013-07-12 04:57:00,55.9,55.3,30.01,West,270,0.0,-999.0,98,-99.99,,,0.00,Acu-Link.com,2013-07-12 08:57:00,
2013-07-12 05:12:00,55.6,55.0,30.01,East,90,0.0,-999.0,98,-99.99,,,0.00,Acu-Link.com,2013-07-12 09:12:00,
2013-07-12 05:27:00,55.4,54.8,30.02,West,270,0.0,-999.0,98,-99.99,,,0.00,Acu-Link.com,2013-07-12 09:27:00,
2013-07-12 05:42:00,55.2,54.6,30.02,NW,315,0.0,-999.0,98,-99.99,,,0.00,Acu-Link.com,2013-07-12 09:42:00,
2013-07-12 05:57:00,55.2,54.6,30.04,South,180,0.0,-999.0,98,-99.99,,,0.00,Acu-Link.com,2013-07-12 09:57:00,
2013-07-12 06:12:00,55.4,54.8,30.05,North,0,0.0,-999.0,98,-99.99,,,0.00,Acu-Link.com,2013-07-12 10:12:00,
2013-07-12 06:28:00,55.8,55.2,30.05,WNW,292,0.0,-999.0,98,-99.99,,,0.00,Acu-Link.com,2013-07-12 10:28:00,
2013-07-12 06:43:00,56.3,55.7,30.05,SSW,202,0.0,-999.0,98,-99.99,,,0.00,Acu-Link.com,2013-07-12 10:43:00,
2013-07-12 06:58:00,57.4,56.8,30.06,SSE,157,0.0,-999.0,98,-99.99,,,0.00,Acu-Link.com,2013-07-12 10:58:00,
2013-07-12 07:14:00,57.9,57.3,30.06,ESE,112,0.0,-999.0,98,-99.99,,,0.00,Acu-Link.com,2013-07-12 11:14:00,
2013-07-12 07:29:00,59.5,58.9,30.06,SSW,202,0.0,-999.0,98,-99.99,,,0.00,Acu-Link.com,2013-07-12 11:29:00,
2013-07-12 07:44:00,60.3,59.7,30.07,SSE,157,0.0,-999.0,98,-99.99,,,0.00,Acu-Link.com,2013-07-12 11:44:00,
2013-07-12 07:59:00,61.2,60.6,30.06,South,180,0.0,-999.0,98,-99.99,,,0.00,Acu-Link.com,2013-07-12 11:59:00,
2013-07-12 08:14:00,63.0,62.4,30.08,SE,135,0.0,-999.0,98,-99.99,,,0.00,Acu-Link.com,2013-07-12 12:14:00,
2013-07-12 08:30:00,64.8,63.9,30.07,ESE,112,0.0,-999.0,97,-99.99,,,0.00,Acu-Link.com,2013-07-12 12:30:00,
2013-07-12 08:45:00,66.4,64.9,30.07,ESE,112,0.0,-999.0,95,-99.99,,,0.00,Acu-Link.com,2013-07-12 12:45:00,
2013-07-12 09:00:00,68.0,65.3,30.08,East,90,0.0,-999.0,91,-99.99,,,0.00,Acu-Link.com,2013-07-12 13:00:00,
2013-07-12 09:15:00,69.4,64.7,30.07,SSW,202,0.0,-999.0,85,-99.99,,,0.00,Acu-Link.com,2013-07-12 13:15:00,
2013-07-12 09:31:00,72.3,66.5,30.08,SSE,157,0.0,-999.0,82,-99.99,,,0.00,Acu-Link.com,2013-07-12 13:31:00,
2013-07-12 09:46:00,72.1,66.3,30.07,SW,225,0.0,-999.0,82,-99.99,,,0.00,Acu-Link.com,2013-07-12 13:46:00,
2013-07-12 10:01:00,73.2,67.0,30.07,SSW,202,0.0,-999.0,81,-99.99,,,0.00,Acu-Link.com,2013-07-12 14:01:00,
2013-07-12 10:16:00,74.5,66.4,30.08,SW,225,0.0,-999.0,76,-99.99,,,0.00,Acu-Link.com,2013-07-12 14:16:00,
2013-07-12 10:32:00,75.2,65.9,30.08,SSE,157,0.0,-999.0,73,-99.99,,,0.00,Acu-Link.com,2013-07-12 14:32:00,
2013-07-12 10:47:00,75.7,68.3,30.10,East,90,1.1,-999.0,78,-99.99,,,0.00,Acu-Link.com,2013-07-12 14:47:00,
2013-07-12 11:02:00,77.2,69.4,30.09,ESE,112,1.7,-999.0,77,-99.99,,,0.00,Acu-Link.com,2013-07-12 15:02:00,
2013-07-12 11:17:00,77.0,69.2,30.09,NNE,22,0.0,-999.0,77,-99.99,,,0.00,Acu-Link.com,2013-07-12 15:17:00,
2013-07-12 11:32:00,77.0,69.6,30.09,East,90,0.0,-999.0,78,-99.99,,,0.00,Acu-Link.com,2013-07-12 15:32:00,
2013-07-12 11:48:00,78.1,70.3,30.09,West,270,0.0,-999.0,77,-99.99,,,0.00,Acu-Link.com,2013-07-12 15:48:00,
2013-07-12 12:03:00,77.5,70.1,30.10,East,90,0.0,-999.0,78,-99.99,,,0.00,Acu-Link.com,2013-07-12 16:03:00,
2013-07-12 12:18:00,78.1,69.9,30.09,East,90,1.1,-999.0,76,-99.99,,,0.00,Acu-Link.com,2013-07-12 16:18:00,
2013-07-12 12:33:00,77.5,68.1,30.09,ESE,112,0.0,-999.0,73,-99.99,,,0.00,Acu-Link.com,2013-07-12 16:33:00,
2013-07-12 12:48:00,78.1,67.9,30.09,SW,225,1.1,-999.0,71,-99.99,,,0.00,Acu-Link.com,2013-07-12 16:48:00,
2013-07-12 13:19:00,79.0,68.8,30.08,SSE,157,0.0,-999.0,71,-99.99,,,0.00,Acu-Link.com,2013-07-12 17:19:00,
2013-07-12 13:34:00,79.0,67.1,30.08,SW,225,1.7,-999.0,67,-99.99,,,0.00,Acu-Link.com,2013-07-12 17:34:00,
2013-07-12 13:49:00,80.1,67.7,30.07,NNE,22,1.7,-999.0,66,-99.99,,,0.00,Acu-Link.com,2013-07-12 17:49:00,
2013-07-12 14:04:00,80.2,68.2,30.08,North,0,1.7,-999.0,67,-99.99,,,0.00,Acu-Link.com,2013-07-12 18:04:00,
2013-07-12 14:35:00,81.9,69.0,30.07,WSW,247,0.0,-999.0,65,-99.99,,,0.00,Acu-Link.com,2013-07-12 18:35:00,
2013-07-12 14:50:00,81.3,69.3,30.08,SE,135,0.0,-999.0,67,-99.99,,,0.00,Acu-Link.com,2013-07-12 18:50:00,
2013-07-12 15:05:00,80.8,69.7,30.08,ENE,67,0.0,-999.0,69,-99.99,,,0.00,Acu-Link.com,2013-07-12 19:05:00,
2013-07-12 15:20:00,80.2,67.8,30.08,WNW,292,0.0,-999.0,66,-99.99,,,0.00,Acu-Link.com,2013-07-12 19:20:00,
2013-07-12 15:51:00,79.5,69.3,30.08,NNW,337,0.0,-999.0,71,-99.99,,,0.00,Acu-Link.com,2013-07-12 19:51:00,
2013-07-12 16:22:00,78.6,68.4,30.07,NE,45,0.0,-999.0,71,-99.99,,,0.00,Acu-Link.com,2013-07-12 20:22:00,
2013-07-12 16:37:00,78.3,69.3,30.07,WNW,292,0.0,-999.0,74,-99.99,,,0.00,Acu-Link.com,2013-07-12 20:37:00,
2013-07-12 16:52:00,78.6,69.2,30.08,WNW,292,0.0,-999.0,73,-99.99,,,0.00,Acu-Link.com,2013-07-12 20:52:00,
2013-07-12 17:07:00,78.1,67.1,30.07,WNW,292,0.0,-999.0,69,-99.99,,,0.00,Acu-Link.com,2013-07-12 21:07:00,
2013-07-12 17:22:00,77.7,69.5,30.07,WNW,292,0.0,-999.0,76,-99.99,,,0.00,Acu-Link.com,2013-07-12 21:22:00,
2013-07-12 17:38:00,77.5,69.3,30.08,NW,315,0.0,-999.0,76,-99.99,,,0.00,Acu-Link.com,2013-07-12 21:38:00,
2013-07-12 17:53:00,76.3,70.4,30.08,NW,315,0.0,-999.0,82,-99.99,,,0.00,Acu-Link.com,2013-07-12 21:53:00,
2013-07-12 18:08:00,75.2,70.0,30.07,NW,315,0.0,-999.0,84,-99.99,,,0.00,Acu-Link.com,2013-07-12 22:08:00,
2013-07-12 18:24:00,74.7,69.5,30.08,NW,315,0.0,-999.0,84,-99.99,,,0.00,Acu-Link.com,2013-07-12 22:24:00,
2013-07-12 18:39:00,74.3,69.8,30.08,NW,315,0.0,-999.0,86,-99.99,,,0.00,Acu-Link.com,2013-07-12 22:39:00,
2013-07-12 18:54:00,73.2,69.1,30.09,NW,315,0.0,-999.0,87,-99.99,,,0.00,Acu-Link.com,2013-07-12 22:54:00,
2013-07-12 19:24:00,71.6,68.8,30.09,NW,315,0.0,-999.0,91,-99.99,,,0.00,Acu-Link.com,2013-07-12 23:24:00,
2013-07-12 19:40:00,70.7,68.3,30.09,NW,315,0.0,-999.0,92,-99.99,,,0.00,Acu-Link.com,2013-07-12 23:40:00,
2013-07-12 20:40:00,67.5,66.9,30.11,NW,315,0.0,-999.0,98,-99.99,,,0.00,Acu-Link.com,2013-07-13 00:40:00,
2013-07-12 20:56:00,66.9,66.3,30.12,NW,315,0.0,-999.0,98,-99.99,,,0.00,Acu-Link.com,2013-07-13 00:56:00,
2013-07-12 21:26:00,66.2,65.6,30.15,NW,315,0.0,-999.0,98,-99.99,,,0.00,Acu-Link.com,2013-07-13 01:26:00,
2013-07-12 21:42:00,65.7,65.1,30.14,NW,315,0.0,-999.0,98,-99.99,,,0.00,Acu-Link.com,2013-07-13 01:42:00,
2013-07-12 22:12:00,65.5,64.9,30.15,NW,315,0.0,-999.0,98,-99.99,,,0.00,Acu-Link.com,2013-07-13 02:12:00,
2013-07-12 22:27:00,65.5,64.9,30.15,NW,315,0.0,-999.0,98,-99.99,,,0.00,Acu-Link.com,2013-07-13 02:27:00,
2013-07-12 22:42:00,65.5,64.9,30.15,NW,315,0.0,-999.0,98,-99.99,,,0.00,Acu-Link.com,2013-07-13 02:42:00,
2013-07-12 22:58:00,65.3,64.7,30.16,NW,315,0.0,-999.0,98,-99.99,,,0.00,Acu-Link.com,2013-07-13 02:58:00,
2013-07-12 23:13:00,64.8,64.2,30.16,NW,315,0.0,-999.0,98,-99.99,,,0.00,Acu-Link.com,2013-07-13 03:13:00,
2013-07-12 23:28:00,64.6,64.0,30.17,NW,315,0.0,-999.0,98,-99.99,,,0.00,Acu-Link.com,2013-07-13 03:28:00,
2013-07-12 23:59:00,63.9,63.3,30.17,NW,315,0.0,-999.0,98,-99.99,,,0.00,Acu-Link.com,2013-07-13 03:59:00,